createdAt,value
2018-05-04T00:00:52.833Z,0.00
2018-05-04T00:01:52.755Z,0.00
2018-05-04T00:02:52.685Z,0.00
2018-05-04T00:03:52.613Z,0.00
2018-05-04T00:04:52.537Z,0.00
2018-05-04T00:05:52.458Z,0.00
2018-05-04T00:06:52.383Z,0.00
2018-05-04T00:07:52.306Z,0.00
2018-05-04T00:08:52.232Z,0.00
2018-05-04T00:09:52.159Z,0.00
2018-05-04T00:10:52.084Z,0.00
2018-05-04T00:11:52.005Z,0.00
2018-05-04T00:12:51.933Z,0.00
2018-05-04T00:13:51.854Z,0.00
2018-05-04T00:14:51.779Z,0.00
2018-05-04T00:15:51.706Z,0.00
2018-05-04T00:16:51.626Z,0.00
2018-05-04T00:17:51.555Z,0.00
2018-05-04T00:18:51.480Z,0.00
2018-05-04T00:19:51.400Z,0.00
2018-05-04T00:20:51.326Z,0.00
2018-05-04T00:21:51.249Z,0.00
2018-05-04T00:22:51.174Z,0.00
2018-05-04T00:23:51.099Z,0.00
2018-05-04T00:24:51.024Z,0.00
2018-05-04T00:25:50.949Z,0.00
2018-05-04T00:26:50.871Z,0.00
2018-05-04T00:27:50.797Z,0.00
2018-05-04T00:28:50.724Z,0.00
2018-05-04T00:29:50.644Z,0.00
2018-05-04T00:30:50.570Z,0.00
2018-05-04T00:31:50.494Z,0.00
2018-05-04T00:32:50.419Z,0.00
2018-05-04T00:33:50.348Z,0.00
2018-05-04T00:34:50.269Z,0.00
2018-05-04T00:35:50.192Z,0.00
2018-05-04T00:36:50.113Z,0.00
2018-05-04T00:37:50.048Z,0.00
2018-05-04T00:38:49.963Z,0.00
2018-05-04T00:39:49.888Z,0.00
2018-05-04T00:40:49.811Z,0.00
2018-05-04T00:41:49.736Z,0.00
2018-05-04T00:42:49.661Z,0.00
2018-05-04T00:43:49.586Z,0.00
2018-05-04T00:44:49.510Z,0.00
2018-05-04T00:45:49.434Z,0.00
2018-05-04T00:46:49.355Z,0.00
2018-05-04T00:47:49.282Z,0.00
2018-05-04T00:48:49.205Z,0.00
2018-05-04T00:49:49.129Z,0.00
2018-05-04T00:50:49.059Z,0.00
2018-05-04T00:51:48.978Z,0.00
2018-05-04T00:52:48.904Z,0.00
2018-05-04T00:53:48.834Z,0.00
2018-05-04T00:54:48.750Z,0.00
2018-05-04T00:55:48.676Z,0.00
2018-05-04T00:56:48.600Z,0.00
2018-05-04T00:57:48.525Z,0.00
2018-05-04T00:58:48.450Z,0.00
2018-05-04T00:59:48.369Z,0.00
2018-05-04T01:00:48.296Z,0.00
2018-05-04T01:01:48.218Z,0.00
2018-05-04T01:02:48.144Z,0.00
2018-05-04T01:03:48.066Z,0.00
2018-05-04T01:04:47.993Z,0.00
2018-05-04T01:05:47.915Z,0.00
2018-05-04T01:06:47.838Z,0.00
2018-05-04T01:07:47.767Z,0.00
2018-05-04T01:08:47.688Z,0.00
2018-05-04T01:09:47.612Z,0.00
2018-05-04T01:10:47.533Z,0.00
2018-05-04T01:11:47.472Z,0.00
2018-05-04T01:12:47.382Z,0.00
2018-05-04T01:13:47.307Z,0.00
2018-05-04T01:14:47.239Z,0.00
2018-05-04T01:15:47.157Z,0.00
2018-05-04T01:16:47.077Z,0.00
2018-05-04T01:17:47.003Z,0.00
2018-05-04T01:18:46.927Z,0.00
2018-05-04T01:19:46.849Z,0.00
2018-05-04T01:20:46.773Z,0.00
2018-05-04T01:21:46.699Z,0.00
2018-05-04T01:22:46.620Z,0.00
2018-05-04T01:23:46.545Z,0.00
2018-05-04T01:24:46.472Z,0.00
2018-05-04T01:25:46.397Z,0.00
2018-05-04T01:26:46.317Z,0.00
2018-05-04T01:27:46.243Z,0.00
2018-05-04T01:28:46.164Z,0.00
2018-05-04T01:29:46.093Z,0.00
2018-05-04T01:30:46.012Z,0.00
2018-05-04T01:31:45.933Z,0.00
2018-05-04T01:32:45.860Z,0.00
2018-05-04T01:33:45.783Z,0.00
2018-05-04T01:34:45.707Z,0.00
2018-05-04T01:35:45.633Z,0.00
2018-05-04T01:36:45.558Z,0.00
2018-05-04T01:37:45.480Z,0.00
2018-05-04T01:38:45.401Z,0.00
2018-05-04T01:39:45.326Z,0.00
2018-05-04T01:40:45.257Z,0.00
2018-05-04T01:41:45.180Z,0.00
2018-05-04T01:42:45.095Z,0.00
2018-05-04T01:43:45.031Z,0.00
2018-05-04T01:44:44.945Z,0.00
2018-05-04T01:45:44.876Z,0.00
2018-05-04T01:46:44.791Z,0.00
2018-05-04T01:47:44.715Z,0.00
2018-05-04T01:48:44.638Z,0.00
2018-05-04T01:49:44.562Z,0.00
2018-05-04T01:50:44.489Z,0.00
2018-05-04T01:51:44.410Z,0.00
2018-05-04T01:52:44.335Z,0.00
2018-05-04T01:53:44.261Z,0.00
2018-05-04T01:54:44.181Z,0.00
2018-05-04T01:55:44.106Z,0.00
2018-05-04T01:56:44.029Z,0.00
2018-05-04T01:57:43.953Z,0.00
2018-05-04T01:58:43.875Z,0.00
2018-05-04T01:59:43.798Z,0.00
2018-05-04T02:00:43.722Z,0.00
2018-05-04T02:01:43.651Z,0.00
2018-05-04T02:02:43.570Z,0.00
2018-05-04T02:03:43.494Z,0.00
2018-05-04T02:04:43.417Z,0.00
2018-05-04T02:05:43.341Z,0.00
2018-05-04T02:06:43.264Z,0.00
2018-05-04T02:07:43.265Z,0.00
2018-05-04T02:08:43.113Z,0.00
2018-05-04T02:09:43.036Z,0.00
2018-05-04T02:10:42.961Z,0.00
2018-05-04T02:11:42.923Z,0.00
2018-05-04T02:12:42.821Z,0.00
2018-05-04T02:13:42.723Z,0.00
2018-05-04T02:14:42.658Z,0.00
2018-05-04T02:15:42.573Z,0.00
2018-05-04T02:16:42.499Z,0.00
2018-05-04T02:17:42.423Z,0.00
2018-05-04T02:18:42.346Z,0.00
2018-05-04T02:19:42.271Z,0.00
2018-05-04T02:20:42.193Z,0.00
2018-05-04T02:21:42.120Z,0.00
2018-05-04T02:22:42.044Z,0.00
2018-05-04T02:23:41.963Z,0.00
2018-05-04T02:24:41.887Z,0.00
2018-05-04T02:25:41.809Z,0.00
2018-05-04T02:26:41.732Z,0.00
2018-05-04T02:27:41.658Z,0.00
2018-05-04T02:28:41.580Z,0.00
2018-05-04T02:29:41.505Z,0.00
2018-05-04T02:30:41.432Z,0.00
2018-05-04T02:31:41.346Z,0.00
2018-05-04T02:32:41.272Z,0.00
2018-05-04T02:33:41.197Z,0.00
2018-05-04T02:34:41.116Z,0.00
2018-05-04T02:35:41.044Z,0.00
2018-05-04T02:36:40.967Z,0.00
2018-05-04T02:37:40.892Z,0.00
2018-05-04T02:38:40.814Z,0.00
2018-05-04T02:39:40.740Z,0.00
2018-05-04T02:40:40.659Z,0.00
2018-05-04T02:41:40.595Z,0.00
2018-05-04T02:42:40.504Z,0.00
2018-05-04T02:43:40.430Z,0.00
2018-05-04T02:44:40.357Z,0.00
2018-05-04T02:45:40.273Z,0.00
2018-05-04T02:46:40.197Z,0.00
2018-05-04T02:47:40.119Z,0.00
2018-05-04T02:48:40.051Z,0.00
2018-05-04T02:49:39.981Z,0.00
2018-05-04T02:50:39.889Z,0.00
2018-05-04T02:51:39.813Z,0.00
2018-05-04T02:52:39.740Z,0.00
2018-05-04T02:53:39.661Z,0.00
2018-05-04T02:54:39.583Z,0.00
2018-05-04T02:55:39.506Z,0.00
2018-05-04T02:56:39.430Z,0.00
2018-05-04T02:57:39.370Z,0.00
2018-05-04T02:58:39.272Z,0.00
2018-05-04T02:59:39.198Z,0.00
2018-05-04T03:00:39.122Z,0.00
2018-05-04T03:01:39.045Z,0.00
2018-05-04T03:02:38.967Z,0.00
2018-05-04T03:03:38.888Z,0.00
2018-05-04T03:04:38.824Z,0.00
2018-05-04T03:05:38.736Z,0.00
2018-05-04T03:06:38.660Z,0.00
2018-05-04T03:07:38.584Z,0.00
2018-05-04T03:08:38.506Z,0.00
2018-05-04T03:09:38.431Z,0.00
2018-05-04T03:10:38.354Z,0.00
2018-05-04T03:11:38.275Z,0.00
2018-05-04T03:12:38.198Z,0.00
2018-05-04T03:13:38.128Z,0.00
2018-05-04T03:14:38.042Z,0.00
2018-05-04T03:15:37.961Z,0.00
2018-05-04T03:16:37.894Z,0.00
2018-05-04T03:17:37.813Z,0.00
2018-05-04T03:18:37.739Z,0.00
2018-05-04T03:19:37.656Z,0.00
2018-05-04T03:20:37.576Z,0.00
2018-05-04T03:21:37.506Z,0.00
2018-05-04T03:22:37.428Z,0.00
2018-05-04T03:23:37.350Z,0.00
2018-05-04T03:24:37.277Z,0.00
2018-05-04T03:25:37.202Z,0.00
2018-05-04T03:26:37.119Z,0.00
2018-05-04T03:27:37.042Z,0.00
2018-05-04T03:28:36.973Z,0.00
2018-05-04T03:29:36.894Z,0.00
2018-05-04T03:30:36.884Z,0.00
2018-05-04T03:31:36.732Z,4.00
2018-05-04T03:32:36.657Z,4.00
2018-05-04T03:33:36.585Z,0.00
2018-05-04T03:34:36.503Z,0.00
2018-05-04T03:35:36.432Z,4.00
2018-05-04T03:36:36.349Z,4.00
2018-05-04T03:37:36.271Z,4.00
2018-05-04T03:38:36.194Z,4.00
2018-05-04T03:39:36.117Z,4.00
2018-05-04T03:40:36.040Z,8.00
2018-05-04T03:41:35.961Z,8.00
2018-05-04T03:42:35.886Z,8.00
2018-05-04T03:43:35.808Z,12.00
2018-05-04T03:44:35.738Z,12.00
2018-05-04T03:45:35.655Z,16.00
2018-05-04T03:46:35.585Z,16.00
2018-05-04T03:47:35.502Z,20.00
2018-05-04T03:48:35.429Z,20.00
2018-05-04T03:49:35.347Z,20.00
2018-05-04T03:50:35.266Z,24.00
2018-05-04T03:51:35.192Z,28.00
2018-05-04T03:52:35.116Z,32.00
2018-05-04T03:53:35.039Z,36.00
2018-05-04T03:54:34.959Z,40.00
2018-05-04T03:55:34.881Z,48.00
2018-05-04T03:56:34.808Z,48.00
2018-05-04T03:57:34.728Z,56.00
2018-05-04T03:58:34.651Z,60.00
2018-05-04T03:59:34.584Z,68.00
2018-05-04T04:00:34.502Z,76.00
2018-05-04T04:01:34.421Z,84.00
2018-05-04T04:02:34.426Z,88.00
2018-05-04T04:03:34.260Z,96.00
2018-05-04T04:04:34.187Z,108.00
2018-05-04T04:05:34.116Z,116.00
2018-05-04T04:06:34.036Z,124.00
2018-05-04T04:07:33.952Z,136.00
2018-05-04T04:08:33.879Z,144.00
2018-05-04T04:09:33.799Z,152.00
2018-05-04T04:10:33.722Z,164.00
2018-05-04T04:11:33.647Z,176.00
2018-05-04T04:12:33.592Z,188.00
2018-05-04T04:13:33.491Z,200.00
2018-05-04T04:14:33.412Z,212.00
2018-05-04T04:15:33.336Z,224.00
2018-05-04T04:16:33.256Z,236.00
2018-05-04T04:17:33.182Z,244.00
2018-05-04T04:18:33.110Z,256.00
2018-05-04T04:19:33.074Z,272.00
2018-05-04T04:20:32.948Z,284.00
2018-05-04T04:21:32.879Z,292.00
2018-05-04T04:22:32.795Z,304.00
2018-05-04T04:23:32.716Z,320.00
2018-05-04T04:24:32.638Z,332.00
2018-05-04T04:25:32.575Z,348.00
2018-05-04T04:26:32.487Z,364.00
2018-05-04T04:27:32.411Z,380.00
2018-05-04T04:28:32.333Z,392.00
2018-05-04T04:29:32.255Z,408.00
2018-05-04T04:30:32.182Z,424.00
2018-05-04T04:31:32.091Z,440.00
2018-05-04T04:32:32.022Z,452.00
2018-05-04T04:33:31.944Z,464.00
2018-05-04T04:34:31.863Z,480.00
2018-05-04T04:35:31.787Z,496.00
2018-05-04T04:36:31.709Z,504.00
2018-05-04T04:37:31.627Z,520.00
2018-05-04T04:38:31.559Z,532.00
2018-05-04T04:39:31.473Z,548.00
2018-05-04T04:40:31.395Z,556.00
2018-05-04T04:41:31.317Z,572.00
2018-05-04T04:42:31.246Z,580.00
2018-05-04T04:43:31.167Z,596.00
2018-05-04T04:44:31.116Z,608.00
2018-05-04T04:45:31.037Z,620.00
2018-05-04T04:46:30.933Z,628.00
2018-05-04T04:47:30.863Z,644.00
2018-05-04T04:48:30.781Z,656.00
2018-05-04T04:49:30.704Z,664.00
2018-05-04T04:50:30.625Z,676.00
2018-05-04T04:51:30.545Z,684.00
2018-05-04T04:52:30.471Z,700.00
2018-05-04T04:53:30.388Z,708.00
2018-05-04T04:54:30.313Z,720.00
2018-05-04T04:55:30.239Z,728.00
2018-05-04T04:56:30.160Z,744.00
2018-05-04T04:57:30.082Z,756.00
2018-05-04T04:58:30.006Z,772.00
2018-05-04T04:59:29.923Z,784.00
2018-05-04T05:00:29.848Z,804.00
2018-05-04T05:01:29.773Z,824.00
2018-05-04T05:02:29.693Z,840.00
2018-05-04T05:03:29.615Z,856.00
2018-05-04T05:04:29.541Z,868.00
2018-05-04T05:05:29.456Z,880.00
2018-05-04T05:06:29.384Z,896.00
2018-05-04T05:07:29.304Z,908.00
2018-05-04T05:08:29.227Z,924.00
2018-05-04T05:09:29.159Z,936.00
2018-05-04T05:10:29.072Z,960.00
2018-05-04T05:11:29.000Z,976.00
2018-05-04T05:12:28.952Z,988.00
2018-05-04T05:13:28.878Z,1012.00
2018-05-04T05:14:28.769Z,1028.00
2018-05-04T05:15:28.685Z,1044.00
2018-05-04T05:16:28.613Z,1052.00
2018-05-04T05:17:28.532Z,1056.00
2018-05-04T05:18:28.454Z,1072.00
2018-05-04T05:19:28.376Z,1088.00
2018-05-04T05:20:28.305Z,1124.00
2018-05-04T05:21:28.221Z,1268.00
2018-05-04T05:22:28.144Z,1248.00
2018-05-04T05:23:28.068Z,1152.00
2018-05-04T05:24:27.995Z,1208.00
2018-05-04T05:25:27.913Z,1284.00
2018-05-04T05:26:27.835Z,1252.00
2018-05-04T05:27:27.756Z,1364.00
2018-05-04T05:28:27.680Z,1604.00
2018-05-04T05:29:27.659Z,1880.00
2018-05-04T05:30:27.542Z,1552.00
2018-05-04T05:31:27.450Z,1388.00
2018-05-04T05:32:27.371Z,1536.00
2018-05-04T05:33:27.296Z,1388.00
2018-05-04T05:34:27.226Z,1228.00
2018-05-04T05:35:27.144Z,1240.00
2018-05-04T05:36:27.067Z,1256.00
2018-05-04T05:37:26.984Z,1272.00
2018-05-04T05:38:26.918Z,1304.00
2018-05-04T05:39:26.828Z,1324.00
2018-05-04T05:40:26.757Z,1324.00
2018-05-04T05:41:26.681Z,1324.00
2018-05-04T05:42:26.659Z,1312.00
2018-05-04T05:43:26.528Z,1300.00
2018-05-04T05:44:26.454Z,1304.00
2018-05-04T05:45:26.376Z,1320.00
2018-05-04T05:46:26.298Z,1324.00
2018-05-04T05:47:26.220Z,1328.00
2018-05-04T05:48:26.147Z,1336.00
2018-05-04T05:49:26.067Z,1336.00
2018-05-04T05:50:25.996Z,1344.00
2018-05-04T05:51:25.913Z,1352.00
2018-05-04T05:52:25.844Z,1356.00
2018-05-04T05:53:25.762Z,1372.00
2018-05-04T05:54:25.684Z,1372.00
2018-05-04T05:55:25.604Z,1384.00
2018-05-04T05:56:25.531Z,1396.00
2018-05-04T05:57:25.456Z,1400.00
2018-05-04T05:58:25.384Z,1408.00
2018-05-04T05:59:25.315Z,1412.00
2018-05-04T06:00:25.230Z,1420.00
2018-05-04T06:01:25.147Z,1428.00
2018-05-04T06:02:25.072Z,1436.00
2018-05-04T06:03:25.000Z,1444.00
2018-05-04T06:04:24.919Z,1448.00
2018-05-04T06:05:24.843Z,1456.00
2018-05-04T06:06:24.766Z,1464.00
2018-05-04T06:07:24.692Z,1472.00
2018-05-04T06:08:24.610Z,1480.00
2018-05-04T06:09:24.564Z,1488.00
2018-05-04T06:10:24.462Z,1492.00
2018-05-04T06:11:24.405Z,1504.00
2018-05-04T06:12:24.311Z,1508.00
2018-05-04T06:13:24.235Z,1520.00
2018-05-04T06:14:24.159Z,1528.00
2018-05-04T06:15:24.084Z,1540.00
2018-05-04T06:16:24.009Z,1544.00
2018-05-04T06:17:23.931Z,1556.00
2018-05-04T06:18:23.859Z,1564.00
2018-05-04T06:19:23.784Z,1576.00
2018-05-04T06:20:23.701Z,1588.00
2018-05-04T06:21:23.627Z,1588.00
2018-05-04T06:22:23.550Z,1596.00
2018-05-04T06:23:23.477Z,1612.00
2018-05-04T06:24:23.404Z,1620.00
2018-05-04T06:25:23.324Z,1628.00
2018-05-04T06:26:23.250Z,1636.00
2018-05-04T06:27:23.172Z,1644.00
2018-05-04T06:28:23.099Z,1652.00
2018-05-04T06:29:23.060Z,1664.00
2018-05-04T06:30:22.948Z,1676.00
2018-05-04T06:31:22.941Z,1692.00
2018-05-04T06:32:22.820Z,1708.00
2018-05-04T06:33:22.723Z,1732.00
2018-05-04T06:34:22.647Z,1756.00
2018-05-04T06:35:22.578Z,1780.00
2018-05-04T06:36:22.495Z,1800.00
2018-05-04T06:37:22.421Z,1824.00
2018-05-04T06:38:22.347Z,1848.00
2018-05-04T06:39:22.270Z,1864.00
2018-05-04T06:40:22.194Z,1888.00
2018-05-04T06:41:22.119Z,1916.00
2018-05-04T06:42:22.043Z,1944.00
2018-05-04T06:43:21.967Z,1948.00
2018-05-04T06:44:21.900Z,1932.00
2018-05-04T06:45:21.817Z,1912.00
2018-05-04T06:46:21.741Z,1884.00
2018-05-04T06:47:21.670Z,1868.00
2018-05-04T06:48:21.593Z,1852.00
2018-05-04T06:49:21.520Z,1836.00
2018-05-04T06:50:21.453Z,1832.00
2018-05-04T06:51:21.369Z,1836.00
2018-05-04T06:52:21.296Z,1836.00
2018-05-04T06:53:21.292Z,1840.00
2018-05-04T06:54:21.140Z,1848.00
2018-05-04T06:55:21.068Z,1852.00
2018-05-04T06:56:20.993Z,1852.00
2018-05-04T06:57:20.917Z,1856.00
2018-05-04T06:58:20.843Z,1864.00
2018-05-04T06:59:20.857Z,1872.00
2018-05-04T07:00:20.699Z,1876.00
2018-05-04T07:01:20.619Z,1884.00
2018-05-04T07:02:20.572Z,1892.00
2018-05-04T07:03:20.466Z,1900.00
2018-05-04T07:04:20.397Z,1904.00
2018-05-04T07:05:20.325Z,1900.00
2018-05-04T07:06:20.243Z,1912.00
2018-05-04T07:07:20.171Z,1916.00
2018-05-04T07:08:20.096Z,1920.00
2018-05-04T07:09:20.022Z,1916.00
2018-05-04T07:10:19.967Z,1924.00
2018-05-04T07:11:19.873Z,1928.00
2018-05-04T07:12:19.804Z,1932.00
2018-05-04T07:13:19.725Z,1940.00
2018-05-04T07:14:19.649Z,1944.00
2018-05-04T07:15:19.574Z,1952.00
2018-05-04T07:16:19.502Z,1964.00
2018-05-04T07:17:19.508Z,1976.00
2018-05-04T07:18:19.349Z,1988.00
2018-05-04T07:19:19.283Z,1996.00
2018-05-04T07:20:19.209Z,2004.00
2018-05-04T07:21:19.128Z,2008.00
2018-05-04T07:22:19.058Z,2016.00
2018-05-04T07:23:18.982Z,2020.00
2018-05-04T07:24:18.908Z,2028.00
2018-05-04T07:25:18.836Z,2048.00
2018-05-04T07:26:18.757Z,2068.00
2018-05-04T07:27:18.688Z,2080.00
2018-05-04T07:28:18.610Z,2088.00
2018-05-04T07:29:18.539Z,2092.00
2018-05-04T07:30:18.461Z,2104.00
2018-05-04T07:31:18.388Z,2108.00
2018-05-04T07:32:18.313Z,2116.00
2018-05-04T07:33:18.244Z,2120.00
2018-05-04T07:34:18.171Z,2124.00
2018-05-04T07:35:18.091Z,2136.00
2018-05-04T07:36:18.022Z,2140.00
2018-05-04T07:37:17.946Z,2148.00
2018-05-04T07:38:17.875Z,2156.00
2018-05-04T07:39:17.797Z,2164.00
2018-05-04T07:40:17.723Z,2164.00
2018-05-04T07:41:17.652Z,2164.00
2018-05-04T07:42:17.573Z,2164.00
2018-05-04T07:43:17.504Z,2168.00
2018-05-04T07:44:17.431Z,2168.00
2018-05-04T07:45:17.353Z,2164.00
2018-05-04T07:46:17.282Z,2184.00
2018-05-04T07:47:17.203Z,2196.00
2018-05-04T07:48:17.136Z,2204.00
2018-05-04T07:49:17.060Z,2208.00
2018-05-04T07:50:16.983Z,2220.00
2018-05-04T07:51:16.913Z,2220.00
2018-05-04T07:52:16.843Z,2224.00
2018-05-04T07:53:16.767Z,2228.00
2018-05-04T07:54:16.689Z,2228.00
2018-05-04T07:55:16.675Z,2244.00
2018-05-04T07:56:16.554Z,2256.00
2018-05-04T07:57:16.478Z,2264.00
2018-05-04T07:58:16.399Z,2276.00
2018-05-04T07:59:16.325Z,2296.00
2018-05-04T08:00:16.261Z,2300.00
2018-05-04T08:01:16.182Z,2300.00
2018-05-04T08:02:16.110Z,2300.00
2018-05-04T08:03:16.034Z,2308.00
2018-05-04T08:04:15.963Z,2320.00
2018-05-04T08:05:15.887Z,2332.00
2018-05-04T08:06:15.811Z,2340.00
2018-05-04T08:07:15.739Z,2352.00
2018-05-04T08:08:15.668Z,2364.00
2018-05-04T08:09:15.593Z,2364.00
2018-05-04T08:10:15.520Z,2380.00
2018-05-04T08:11:15.447Z,2424.00
2018-05-04T08:12:15.373Z,2472.00
2018-05-04T08:13:15.299Z,2468.00
2018-05-04T08:14:15.231Z,2740.00
2018-05-04T08:15:15.161Z,2952.00
2018-05-04T08:16:15.084Z,2744.00
2018-05-04T08:17:15.018Z,3224.00
2018-05-04T08:18:14.935Z,3508.00
2018-05-04T08:19:14.867Z,2856.00
2018-05-04T08:20:14.796Z,2612.00
2018-05-04T08:21:14.725Z,2592.00
2018-05-04T08:22:14.646Z,2588.00
2018-05-04T08:23:14.579Z,2724.00
2018-05-04T08:24:14.500Z,3144.00
2018-05-04T08:25:14.433Z,2712.00
2018-05-04T08:26:14.359Z,2840.00
2018-05-04T08:27:14.287Z,7648.00
2018-05-04T08:28:14.215Z,7480.00
2018-05-04T08:29:14.147Z,3368.00
2018-05-04T08:30:14.071Z,2800.00
2018-05-04T08:31:13.991Z,2744.00
2018-05-04T08:32:13.924Z,2832.00
2018-05-04T08:33:13.853Z,2984.00
2018-05-04T08:34:13.778Z,2956.00
2018-05-04T08:35:13.716Z,2916.00
2018-05-04T08:36:13.648Z,2864.00
2018-05-04T08:37:13.566Z,3960.00
2018-05-04T08:38:13.491Z,2868.00
2018-05-04T08:39:13.428Z,4588.00
2018-05-04T08:40:13.350Z,14884.00
2018-05-04T08:41:13.277Z,11624.00
2018-05-04T08:42:13.201Z,4140.00
2018-05-04T08:43:13.139Z,2932.00
2018-05-04T08:44:13.059Z,3292.00
2018-05-04T08:45:13.001Z,3352.00
2018-05-04T08:46:12.915Z,3008.00
2018-05-04T08:47:12.845Z,2992.00
2018-05-04T08:48:12.805Z,4188.00
2018-05-04T08:49:12.698Z,4452.00
2018-05-04T08:50:12.630Z,3512.00
2018-05-04T08:51:12.595Z,5596.00
2018-05-04T08:52:12.487Z,4104.00
2018-05-04T08:53:12.416Z,5120.00
2018-05-04T08:54:12.346Z,4172.00
2018-05-04T08:55:12.276Z,5072.00
2018-05-04T08:56:12.201Z,5192.00
2018-05-04T08:57:12.167Z,5168.00
2018-05-04T08:58:12.051Z,13664.00
2018-05-04T08:59:11.985Z,23584.00
2018-05-04T09:00:11.910Z,11856.00
2018-05-04T09:01:11.850Z,5780.00
2018-05-04T09:02:11.772Z,4484.00
2018-05-04T09:03:11.702Z,3884.00
2018-05-04T09:04:11.631Z,3660.00
2018-05-04T09:05:11.639Z,3736.00
2018-05-04T09:06:11.487Z,4068.00
2018-05-04T09:07:11.417Z,4772.00
2018-05-04T09:08:11.347Z,10284.00
2018-05-04T09:09:11.278Z,8680.00
2018-05-04T09:10:11.209Z,8428.00
2018-05-04T09:11:11.140Z,7952.00
2018-05-04T09:12:11.063Z,7168.00
2018-05-04T09:13:10.996Z,39008.00
2018-05-04T09:14:10.931Z,67104.00
2018-05-04T09:15:10.854Z,72192.00
2018-05-04T09:16:10.782Z,70368.00
2018-05-04T09:17:10.711Z,72384.00
2018-05-04T09:18:10.650Z,76032.00
2018-05-04T09:19:10.581Z,75840.00
2018-05-04T09:20:10.504Z,73248.00
2018-05-04T09:21:10.435Z,73984.00
2018-05-04T09:22:10.369Z,74784.00
2018-05-04T09:23:10.306Z,74912.00
2018-05-04T09:24:10.244Z,74016.00
2018-05-04T09:25:10.171Z,72832.00
2018-05-04T09:26:10.111Z,71200.00
2018-05-04T09:27:10.034Z,71360.00
2018-05-04T09:28:09.977Z,71456.00
2018-05-04T09:29:09.909Z,69344.00
2018-05-04T09:30:09.840Z,68288.00
2018-05-04T09:31:09.783Z,68032.00
2018-05-04T09:32:09.717Z,69120.00
2018-05-04T09:33:09.655Z,70144.00
2018-05-04T09:34:09.592Z,70816.00
2018-05-04T09:35:09.529Z,71360.00
2018-05-04T09:36:09.468Z,72384.00
2018-05-04T09:37:09.411Z,73536.00
2018-05-04T09:38:09.343Z,73920.00
2018-05-04T09:39:09.309Z,73248.00
2018-05-04T09:40:09.221Z,71520.00
2018-05-04T09:41:09.166Z,71296.00
2018-05-04T09:42:09.102Z,72224.00
2018-05-04T09:43:09.045Z,73952.00
2018-05-04T09:44:08.983Z,73120.00
2018-05-04T09:45:08.925Z,72256.00
2018-05-04T09:46:08.866Z,72608.00
2018-05-04T09:47:08.804Z,74016.00
2018-05-04T09:48:08.752Z,74368.00
2018-05-04T09:49:08.705Z,72352.00
2018-05-04T09:50:08.634Z,71808.00
2018-05-04T09:51:08.566Z,74912.00
2018-05-04T09:52:08.515Z,75296.00
2018-05-04T09:53:08.453Z,73088.00
2018-05-04T09:54:08.391Z,69536.00
2018-05-04T09:55:08.339Z,69216.00
2018-05-04T09:56:08.355Z,71200.00
2018-05-04T09:57:08.218Z,71072.00
2018-05-04T09:58:08.168Z,72320.00
2018-05-04T09:59:08.111Z,74784.00
2018-05-04T10:00:08.052Z,75552.00
2018-05-04T10:01:07.997Z,76352.00
2018-05-04T10:02:07.935Z,76288.00
2018-05-04T10:03:07.883Z,75456.00
2018-05-04T10:04:07.833Z,76256.00
2018-05-04T10:05:07.771Z,76448.00
2018-05-04T10:06:07.721Z,76000.00
2018-05-04T10:07:07.661Z,77152.00
2018-05-04T10:08:07.608Z,77856.00
2018-05-04T10:09:07.590Z,78144.00
2018-05-04T10:10:07.489Z,79456.00
2018-05-04T10:11:07.435Z,78848.00
2018-05-04T10:12:07.378Z,78656.00
2018-05-04T10:13:07.326Z,75488.00
2018-05-04T10:14:07.268Z,74112.00
2018-05-04T10:15:07.213Z,67776.00
2018-05-04T10:16:07.173Z,67712.00
2018-05-04T10:17:07.104Z,74880.00
2018-05-04T10:18:07.050Z,67328.00
2018-05-04T10:19:06.993Z,72672.00
2018-05-04T10:20:06.936Z,71712.00
2018-05-04T10:21:06.882Z,71264.00
2018-05-04T10:22:06.826Z,73536.00
2018-05-04T10:23:06.773Z,74560.00
2018-05-04T10:24:06.718Z,69376.00
2018-05-04T10:25:06.665Z,70944.00
2018-05-04T10:26:06.604Z,71040.00
2018-05-04T10:27:06.553Z,72032.00
2018-05-04T10:28:06.510Z,55904.00
2018-05-04T10:29:06.441Z,14848.00
2018-05-04T10:30:06.384Z,12720.00
2018-05-04T10:31:06.336Z,7828.00
2018-05-04T10:32:06.278Z,4728.00
2018-05-04T10:33:06.228Z,72704.00
2018-05-04T10:34:06.167Z,12560.00
2018-05-04T10:35:06.116Z,7804.00
2018-05-04T10:36:06.052Z,6116.00
2018-05-04T10:37:05.999Z,6844.00
2018-05-04T10:38:06.035Z,10664.00
2018-05-04T10:39:05.876Z,28224.00
2018-05-04T10:40:05.828Z,6168.00
2018-05-04T10:41:05.767Z,5624.00
2018-05-04T10:42:05.708Z,5104.00
2018-05-04T10:43:05.648Z,5536.00
2018-05-04T10:44:05.587Z,4724.00
2018-05-04T10:45:05.572Z,4532.00
2018-05-04T10:46:05.468Z,4108.00
2018-05-04T10:47:05.426Z,3976.00
2018-05-04T10:48:05.346Z,3600.00
2018-05-04T10:49:05.285Z,3516.00
2018-05-04T10:50:05.222Z,3608.00
2018-05-04T10:51:05.164Z,3420.00
2018-05-04T10:52:05.098Z,3452.00
2018-05-04T10:53:05.026Z,3444.00
2018-05-04T10:54:04.968Z,5272.00
2018-05-04T10:55:04.905Z,15384.00
2018-05-04T10:56:04.844Z,4884.00
2018-05-04T10:57:04.784Z,3548.00
2018-05-04T10:58:04.720Z,5596.00
2018-05-04T10:59:04.649Z,3752.00
2018-05-04T11:00:04.599Z,3456.00
2018-05-04T11:01:04.519Z,5276.00
2018-05-04T11:02:04.461Z,3940.00
2018-05-04T11:03:04.392Z,17056.00
2018-05-04T11:04:04.329Z,7532.00
2018-05-04T11:05:04.268Z,24864.00
2018-05-04T11:06:04.189Z,14204.00
2018-05-04T11:07:04.134Z,73216.00
2018-05-04T11:08:04.067Z,26560.00
2018-05-04T11:09:04.000Z,33280.00
2018-05-04T11:10:03.931Z,9440.00
2018-05-04T11:11:03.869Z,40864.00
2018-05-04T11:12:03.887Z,19712.00
2018-05-04T11:13:03.737Z,4424.00
2018-05-04T11:14:03.673Z,3728.00
2018-05-04T11:15:03.607Z,3788.00
2018-05-04T11:16:03.537Z,5500.00
2018-05-04T11:17:03.474Z,7760.00
2018-05-04T11:18:03.410Z,16188.00
2018-05-04T11:19:03.347Z,9128.00
2018-05-04T11:20:03.276Z,7796.00
2018-05-04T11:21:03.213Z,6816.00
2018-05-04T11:22:03.159Z,23936.00
2018-05-04T11:23:03.080Z,22368.00
2018-05-04T11:24:03.015Z,57952.00
2018-05-04T11:25:02.956Z,35776.00
2018-05-04T11:26:02.881Z,37344.00
2018-05-04T11:27:02.820Z,25376.00
2018-05-04T11:28:02.756Z,48320.00
2018-05-04T11:29:02.686Z,47200.00
2018-05-04T11:30:02.622Z,58272.00
2018-05-04T11:31:02.553Z,45632.00
2018-05-04T11:32:02.489Z,60928.00
2018-05-04T11:33:02.430Z,32928.00
2018-05-04T11:34:02.360Z,38240.00
2018-05-04T11:35:02.298Z,27648.00
2018-05-04T11:36:02.231Z,11300.00
2018-05-04T11:37:02.169Z,9300.00
2018-05-04T11:38:02.101Z,4648.00
2018-05-04T11:39:02.048Z,7728.00
2018-05-04T11:40:01.975Z,13004.00
2018-05-04T11:41:01.912Z,10044.00
2018-05-04T11:42:01.851Z,21920.00
2018-05-04T11:43:01.786Z,6244.00
2018-05-04T11:44:01.730Z,23136.00
2018-05-04T11:45:01.658Z,12860.00
2018-05-04T11:46:01.591Z,26272.00
2018-05-04T11:47:01.528Z,40032.00
2018-05-04T11:48:01.463Z,4420.00
2018-05-04T11:49:01.403Z,71168.00
2018-05-04T11:50:01.332Z,9720.00
2018-05-04T11:51:01.269Z,4048.00
2018-05-04T11:52:01.207Z,3832.00
2018-05-04T11:53:01.147Z,3452.00
2018-05-04T11:54:01.080Z,3616.00
2018-05-04T11:55:01.013Z,3624.00
2018-05-04T11:56:00.949Z,4616.00
2018-05-04T11:57:00.889Z,3928.00
2018-05-04T11:58:00.821Z,3808.00
2018-05-04T11:59:00.756Z,4404.00
2018-05-04T12:00:00.693Z,9240.00
2018-05-04T12:01:00.624Z,14132.00
2018-05-04T12:02:00.599Z,8496.00
2018-05-04T12:03:00.492Z,6328.00
2018-05-04T12:04:00.430Z,4136.00
2018-05-04T12:05:00.364Z,4576.00
2018-05-04T12:06:00.297Z,4096.00
2018-05-04T12:07:00.229Z,4356.00
2018-05-04T12:08:00.175Z,4236.00
2018-05-04T12:09:00.100Z,3684.00
2018-05-04T12:10:00.031Z,3704.00
2018-05-04T12:10:59.964Z,3660.00
2018-05-04T12:11:59.909Z,3412.00
2018-05-04T12:12:59.834Z,3324.00
2018-05-04T12:13:59.765Z,3736.00
2018-05-04T12:14:59.702Z,3492.00
2018-05-04T12:15:59.635Z,3308.00
2018-05-04T12:16:59.571Z,3300.00
2018-05-04T12:17:59.503Z,3532.00
2018-05-04T12:18:59.441Z,3632.00
2018-05-04T12:19:59.366Z,3552.00
2018-05-04T12:20:59.314Z,3352.00
2018-05-04T12:21:59.231Z,3804.00
2018-05-04T12:22:59.168Z,3376.00
2018-05-04T12:23:59.119Z,3332.00
2018-05-04T12:24:59.032Z,3356.00